createdAt,value
2019-05-30T00:03:40.528Z,3.10
2019-05-30T00:08:43.760Z,3.47
2019-05-30T00:13:47.282Z,2.80
2019-05-30T00:18:50.817Z,2.67
2019-05-30T00:23:54.103Z,2.10
2019-05-30T00:28:58.232Z,1.93
2019-05-30T00:34:02.541Z,1.73
2019-05-30T00:39:07.326Z,1.73
2019-05-30T00:44:10.599Z,1.60
2019-05-30T00:49:13.881Z,1.43
2019-05-30T00:54:17.415Z,1.10
2019-05-30T00:59:20.957Z,0.90
2019-05-30T01:04:24.240Z,0.83
2019-05-30T01:09:27.530Z,1.00
2019-05-30T01:14:34.040Z,0.77
2019-05-30T01:19:37.497Z,0.77
2019-05-30T01:24:40.787Z,0.77
2019-05-30T01:29:44.076Z,1.10
2019-05-30T01:34:47.374Z,0.60
2019-05-30T01:39:50.760Z,0.80
2019-05-30T01:44:54.281Z,0.97
2019-05-30T01:49:58.279Z,0.80
2019-05-30T01:55:02.764Z,0.80
2019-05-30T02:00:20.244Z,1.07
2019-05-30T02:05:16.082Z,0.97
2019-05-30T02:10:19.429Z,0.77
2019-05-30T02:15:22.953Z,0.80
2019-05-30T02:20:26.406Z,0.90
2019-05-30T02:25:29.697Z,1.00
2019-05-30T02:30:33.216Z,0.97
2019-05-30T02:35:36.510Z,1.07
2019-05-30T02:40:40.087Z,0.93
2019-05-30T02:45:43.451Z,1.20
2019-05-30T02:50:46.970Z,0.97
2019-05-30T02:55:50.351Z,1.13
2019-05-30T03:00:53.650Z,0.97
2019-05-30T03:05:56.934Z,1.20
2019-05-30T03:11:02.221Z,1.20
2019-05-30T03:16:07.417Z,0.90
2019-05-30T03:21:14.837Z,0.80
2019-05-30T03:26:16.493Z,1.03
2019-05-30T03:31:28.786Z,0.90
2019-05-30T03:36:30.791Z,1.30
2019-05-30T03:41:31.820Z,1.33
2019-05-30T03:46:38.115Z,0.90
2019-05-30T03:51:42.567Z,1.43
2019-05-30T03:56:54.239Z,1.30
2019-05-30T04:02:13.951Z,1.03
2019-05-30T04:07:21.369Z,0.90
2019-05-30T04:12:28.198Z,1.13
2019-05-30T04:17:31.493Z,0.90
2019-05-30T04:22:35.035Z,1.37
2019-05-30T04:27:38.574Z,1.40
2019-05-30T04:32:42.109Z,1.60
2019-05-30T04:37:45.485Z,1.30
2019-05-30T04:42:49.022Z,1.50
2019-05-30T04:47:52.331Z,1.33
2019-05-30T04:52:55.624Z,1.20
2019-05-30T04:57:58.909Z,1.20
2019-05-30T05:03:03.429Z,1.10
2019-05-30T05:08:06.717Z,1.50
2019-05-30T05:13:10.255Z,1.33
2019-05-30T05:18:14.969Z,1.20
2019-05-30T05:23:19.335Z,1.50
2019-05-30T05:28:23.821Z,1.30
2019-05-30T05:33:27.290Z,1.50
2019-05-30T05:38:30.587Z,1.67
2019-05-30T05:43:33.877Z,2.27
2019-05-30T05:48:37.825Z,1.70
2019-05-30T05:53:41.357Z,1.20
2019-05-30T05:58:44.673Z,1.33
2019-05-30T06:03:47.959Z,1.20
2019-05-30T06:08:51.250Z,1.60
2019-05-30T06:13:54.775Z,1.20
2019-05-30T06:18:58.312Z,1.40
2019-05-30T06:24:01.950Z,1.20
2019-05-30T06:29:05.522Z,1.40
2019-05-30T06:34:09.018Z,1.07
2019-05-30T06:39:12.315Z,1.03
2019-05-30T06:44:15.872Z,1.13
2019-05-30T06:49:20.615Z,0.93
2019-05-30T06:54:25.871Z,1.20
2019-05-30T06:59:29.812Z,0.90
2019-05-30T07:04:50.390Z,1.20
2019-05-30T07:09:38.660Z,0.93
2019-05-30T07:14:41.941Z,0.73
2019-05-30T07:19:45.235Z,0.80
2019-05-30T07:24:48.783Z,0.80
2019-05-30T07:29:52.058Z,0.87
2019-05-30T07:35:06.021Z,0.90
2019-05-30T07:40:00.371Z,0.77
2019-05-30T07:45:06.812Z,1.20
2019-05-30T07:50:10.991Z,1.00
2019-05-30T07:55:14.351Z,1.20
2019-05-30T08:00:18.178Z,1.10
2019-05-30T08:05:24.677Z,1.30
2019-05-30T08:10:27.682Z,1.20
2019-05-30T08:15:31.372Z,1.30
2019-05-30T08:20:35.877Z,1.60
2019-05-30T08:25:39.213Z,1.70
2019-05-30T08:30:42.766Z,1.30
2019-05-30T08:35:49.999Z,1.63
2019-05-30T08:40:51.626Z,2.00
2019-05-30T08:45:55.223Z,1.30
2019-05-30T08:50:58.827Z,2.30
2019-05-30T08:56:02.128Z,1.50
2019-05-30T09:01:05.648Z,1.33
2019-05-30T09:06:09.242Z,1.60
2019-05-30T09:11:12.608Z,1.17
2019-05-30T09:16:16.197Z,1.77
2019-05-30T09:21:19.463Z,2.00
2019-05-30T09:26:23.000Z,1.80
2019-05-30T09:31:26.306Z,1.70
2019-05-30T09:36:29.613Z,1.63
2019-05-30T09:41:32.907Z,1.63
2019-05-30T09:46:36.287Z,1.43
2019-05-30T09:51:40.613Z,2.00
2019-05-30T09:56:45.032Z,1.90
2019-05-30T10:01:49.836Z,1.93
2019-05-30T10:06:53.335Z,1.70
2019-05-30T10:11:56.627Z,2.20
2019-05-30T10:16:59.929Z,2.40
2019-05-30T10:22:03.211Z,2.20
2019-05-30T10:27:06.749Z,1.80
2019-05-30T10:32:10.300Z,1.97
2019-05-30T10:37:14.608Z,2.20
2019-05-30T10:42:18.150Z,2.33
2019-05-30T10:47:21.464Z,2.20
2019-05-30T10:52:24.755Z,1.90
2019-05-30T10:57:28.047Z,2.87
2019-05-30T11:02:31.343Z,3.87
2019-05-30T11:07:53.025Z,4.60
2019-05-30T11:12:46.614Z,4.53
2019-05-30T11:17:52.741Z,4.30
2019-05-30T11:22:56.522Z,4.60
2019-05-30T11:27:59.765Z,4.83
2019-05-30T11:33:03.287Z,4.30
2019-05-30T11:38:06.898Z,5.07
2019-05-30T11:43:10.250Z,3.73
2019-05-30T11:48:13.863Z,4.17
2019-05-30T11:53:17.155Z,3.60
2019-05-30T11:58:20.755Z,4.50
2019-05-30T12:03:24.073Z,3.90
2019-05-30T12:08:27.395Z,3.27
2019-05-30T12:13:30.951Z,3.67
2019-05-30T12:18:34.264Z,3.37
2019-05-30T12:23:37.783Z,3.30
2019-05-30T12:28:41.297Z,3.83
2019-05-30T12:33:44.572Z,3.17
2019-05-30T12:38:48.127Z,3.60
2019-05-30T12:43:52.942Z,3.33
2019-05-30T12:48:57.334Z,3.70
2019-05-30T12:54:00.904Z,2.77
2019-05-30T12:59:04.275Z,3.47
2019-05-30T13:04:07.557Z,2.73
2019-05-30T13:09:10.834Z,2.70
2019-05-30T13:14:14.412Z,3.43
2019-05-30T13:19:17.753Z,2.80
2019-05-30T13:24:26.143Z,3.60
2019-05-30T13:29:30.935Z,2.63
2019-05-30T13:34:34.217Z,2.80
2019-05-30T13:39:37.526Z,3.50
2019-05-30T13:44:40.818Z,2.57
2019-05-30T13:49:44.113Z,2.53
2019-05-30T13:54:47.628Z,2.30
2019-05-30T13:59:50.912Z,3.13
2019-05-30T14:04:54.191Z,2.70
2019-05-30T14:09:57.476Z,2.80
2019-05-30T14:15:01.315Z,2.53
2019-05-30T14:20:07.074Z,3.03
2019-05-30T14:25:11.775Z,3.77
2019-05-30T14:30:15.266Z,4.63
2019-05-30T14:35:18.784Z,4.47
2019-05-30T14:40:22.377Z,4.87
2019-05-30T14:45:27.891Z,4.43
2019-05-30T14:50:31.114Z,4.50
2019-05-30T14:55:39.573Z,4.30
2019-05-30T15:00:45.992Z,4.77
2019-05-30T15:05:52.444Z,4.10
2019-05-30T15:11:00.068Z,4.87
2019-05-30T15:16:04.699Z,4.10
2019-05-30T15:21:08.351Z,4.07
2019-05-30T15:26:12.177Z,4.00
2019-05-30T15:31:18.457Z,4.20
2019-05-30T15:36:25.163Z,4.77
2019-05-30T15:41:34.341Z,4.00
2019-05-30T15:46:42.330Z,4.20
2019-05-30T15:51:45.655Z,3.80
2019-05-30T15:56:54.495Z,3.73
2019-05-30T16:02:05.556Z,3.73
2019-05-30T16:07:12.529Z,4.13
2019-05-30T16:12:17.101Z,5.07
2019-05-30T16:17:23.256Z,4.83
2019-05-30T16:22:26.567Z,4.40
2019-05-30T16:27:34.196Z,6.60
2019-05-30T16:32:37.470Z,5.50
2019-05-30T16:37:41.002Z,4.30
2019-05-30T16:42:47.478Z,4.00
2019-05-30T16:47:52.660Z,4.27
2019-05-30T16:52:55.940Z,3.87
2019-05-30T16:57:59.466Z,3.60
2019-05-30T17:03:02.743Z,4.17
2019-05-30T17:08:06.095Z,3.70
2019-05-30T17:13:09.696Z,4.00
2019-05-30T17:18:12.973Z,3.77
2019-05-30T17:23:16.713Z,4.70
2019-05-30T17:28:20.357Z,4.30
2019-05-30T17:33:26.716Z,3.60
2019-05-30T17:38:30.420Z,5.50
2019-05-30T17:43:33.953Z,10.13
2019-05-30T17:48:37.233Z,5.00
2019-05-30T17:53:40.516Z,4.03
2019-05-30T17:58:44.103Z,3.23
2019-05-30T18:03:47.392Z,3.20
2019-05-30T18:08:50.931Z,3.00
2019-05-30T18:13:54.547Z,3.33
2019-05-30T18:18:57.822Z,3.17
2019-05-30T18:24:01.103Z,2.77
2019-05-30T18:29:04.397Z,3.20
2019-05-30T18:34:07.680Z,3.00
2019-05-30T18:39:11.216Z,3.03
2019-05-30T18:44:14.565Z,3.00
2019-05-30T18:49:18.084Z,2.43
2019-05-30T18:54:21.372Z,3.43
2019-05-30T19:04:54.886Z,3.10
2019-05-30T19:09:58.414Z,2.30
2019-05-30T19:15:02.261Z,2.57
2019-05-30T19:20:07.552Z,2.53
2019-05-30T19:25:11.132Z,2.80
2019-05-30T19:30:14.488Z,2.93
2019-05-30T19:35:18.209Z,2.50
2019-05-30T19:40:24.742Z,2.37
2019-05-30T19:45:27.832Z,2.17
2019-05-30T19:50:32.476Z,2.50
2019-05-30T19:55:37.402Z,2.93
2019-05-30T20:00:57.311Z,2.67
2019-05-30T20:05:46.440Z,2.40
2019-05-30T20:10:49.731Z,2.93
2019-05-30T20:15:53.091Z,2.50
2019-05-30T20:20:58.077Z,3.10
2019-05-30T20:26:01.854Z,2.60
2019-05-30T20:31:05.393Z,3.37
2019-05-30T20:36:08.912Z,3.00
2019-05-30T20:41:12.215Z,3.40
2019-05-30T20:46:23.132Z,3.07
2019-05-30T20:51:21.719Z,3.60
2019-05-30T20:56:25.166Z,2.67
2019-05-30T21:01:28.703Z,3.00
2019-05-30T21:06:32.060Z,2.50
2019-05-30T21:11:37.986Z,3.47
2019-05-30T21:16:44.242Z,3.00
2019-05-30T21:21:47.593Z,3.37
2019-05-30T21:26:51.145Z,3.63
2019-05-30T21:31:54.506Z,3.10
2019-05-30T21:36:58.014Z,3.23
2019-05-30T21:42:01.463Z,3.43
2019-05-30T21:47:05.016Z,3.83
2019-05-30T21:52:08.360Z,3.60
2019-05-30T21:57:11.899Z,3.23
2019-05-30T22:02:15.188Z,3.00
2019-05-30T22:07:18.477Z,2.90
2019-05-30T22:12:22.006Z,2.93
2019-05-30T22:17:25.297Z,3.00
2019-05-30T22:22:28.829Z,3.10
2019-05-30T22:27:32.366Z,2.90
2019-05-30T22:32:35.672Z,3.00
2019-05-30T22:37:38.946Z,2.53
2019-05-30T22:42:42.251Z,3.10
2019-05-30T22:47:46.395Z,3.07
2019-05-30T22:52:50.935Z,2.70
2019-05-30T22:57:54.217Z,2.63
2019-05-30T23:02:57.827Z,2.50
2019-05-30T23:08:01.125Z,2.40
2019-05-30T23:13:04.487Z,2.67
2019-05-30T23:18:08.022Z,2.20
2019-05-30T23:23:11.555Z,2.10
2019-05-30T23:28:14.836Z,2.03
2019-05-30T23:33:18.388Z,2.13
2019-05-30T23:38:21.680Z,1.90
2019-05-30T23:43:25.365Z,2.10
2019-05-30T23:48:28.665Z,2.00
2019-05-30T23:53:31.964Z,1.77
2019-05-30T23:58:35.495Z,2.40
